Time;durP1;ratioP1;P1;durP2;ratioP2;P2;SDS_P1;SDS_P2;PMS_P1;PMS_P2;Temp;Humidity;BMP_temperature;BMP_pressure;BME280_temperature;BME280_humidity;BME280_pressure;Samples;Min_cycle;Max_cycle;Signal;HPM_P1;HPM_P2
2022/05/23 00:01:57;;;;;;;3.38;2.10;;;;;;;;;;5040822;28;20059;-66
2022/05/23 00:04:23;;;;;;;9.40;1.92;;;;;;;;;;5058623;28;20500;-66
2022/05/23 00:06:49;;;;;;;5.20;2.67;;;;;;;;;;5050025;28;20036;-66
2022/05/23 00:09:14;;;;;;;4.60;2.00;;;;;;;;;;5043110;28;20597;-66
2022/05/23 00:11:39;;;;;;;9.20;2.72;;;;;;;;;;5052802;28;20067;-65
2022/05/23 00:14:05;;;;;;;5.93;1.80;;;;;;;;;;5059215;28;20017;-66
2022/05/23 00:16:33;;;;;;;3.77;2.20;;;;;;;;;;5049959;28;20346;-66
2022/05/23 00:18:59;;;;;;;14.40;2.13;;;;;;;;;;5046692;28;20356;-66
2022/05/23 00:21:24;;;;;;;3.63;2.00;;;;;;;;;;5050264;28;20017;-66
2022/05/23 00:23:49;;;;;;;6.17;2.30;;;;;;;;;;5055743;28;20023;-66
2022/05/23 00:26:16;;;;;;;9.37;2.50;;;;;;;;;;5057120;28;20271;-66
2022/05/23 00:28:41;;;;;;;8.88;2.42;;;;;;;;;;5040476;28;20075;-66
2022/05/23 00:31:06;;;;;;;6.07;2.03;;;;;;;;;;5049569;28;20021;-66
2022/05/23 00:36:15;;;;;;;8.75;2.17;;;;;;;;;;5046623;28;20031;-66
2022/05/23 00:38:40;;;;;;;5.07;2.33;;;;;;;;;;5047245;28;20095;-66
2022/05/23 00:43:59;;;;;;;3.35;2.22;;;;;;;;;;5052518;28;20104;-66
2022/05/23 00:46:24;;;;;;;6.95;2.42;;;;;;;;;;5049513;28;20086;-65
2022/05/23 00:48:51;;;;;;;4.23;2.23;;;;;;;;;;5043560;28;20436;-66
2022/05/23 00:51:16;;;;;;;7.70;2.13;;;;;;;;;;5047323;28;20306;-66
2022/05/23 00:53:47;;;;;;;3.72;2.30;;;;;;;;;;5052297;28;20056;-66
2022/05/23 00:56:14;;;;;;;5.78;1.98;;;;;;;;;;5043619;28;20029;-66
2022/05/23 00:58:41;;;;;;;7.72;2.63;;;;;;;;;;5042059;28;20063;-66
2022/05/23 01:01:08;;;;;;;6.93;2.38;;;;;;;;;;5048706;28;20070;-66
2022/05/23 01:03:33;;;;;;;5.78;2.58;;;;;;;;;;5053735;28;20056;-66
2022/05/23 01:05:59;;;;;;;5.13;2.50;;;;;;;;;;5042558;28;20044;-66
2022/05/23 01:08:26;;;;;;;7.43;2.73;;;;;;;;;;5040472;28;20056;-66
2022/05/23 01:10:51;;;;;;;5.15;2.38;;;;;;;;;;5045531;28;20267;-66
2022/05/23 01:13:16;;;;;;;6.15;2.83;;;;;;;;;;5060144;28;20027;-66
2022/05/23 01:15:46;;;;;;;10.90;2.45;;;;;;;;;;5045777;28;20025;-66
2022/05/23 01:18:11;;;;;;;10.65;2.58;;;;;;;;;;5046887;28;20082;-66
2022/05/23 01:20:36;;;;;;;8.38;2.78;;;;;;;;;;5046373;28;20029;-67
2022/05/23 01:23:08;;;;;;;6.97;2.20;;;;;;;;;;5053988;28;20072;-66
2022/05/23 01:25:34;;;;;;;9.55;2.67;;;;;;;;;;5041871;28;20369;-68
2022/05/23 01:27:59;;;;;;;4.40;2.17;;;;;;;;;;5044968;28;20025;-66
2022/05/23 01:30:24;;;;;;;8.25;2.63;;;;;;;;;;5049241;28;20067;-66
2022/05/23 01:32:49;;;;;;;7.57;2.08;;;;;;;;;;5049229;28;20136;-66
2022/05/23 01:35:15;;;;;;;2.97;1.77;;;;;;;;;;5047674;28;20028;-66
2022/05/23 01:37:40;;;;;;;8.47;2.70;;;;;;;;;;5041464;28;20292;-66
2022/05/23 01:40:07;;;;;;;4.88;2.20;;;;;;;;;;5047464;28;20317;-66
2022/05/23 01:42:33;;;;;;;3.33;1.85;;;;;;;;;;5051011;28;20044;-66
2022/05/23 01:44:58;;;;;;;8.02;2.70;;;;;;;;;;5039433;28;20013;-66
2022/05/23 01:47:23;;;;;;;12.17;2.87;;;;;;;;;;5047836;28;20020;-66
2022/05/23 01:49:48;;;;;;;6.82;2.35;;;;;;;;;;5056818;28;20036;-66
2022/05/23 01:52:14;;;;;;;5.32;2.40;;;;;;;;;;5052596;28;20013;-66
2022/05/23 01:54:39;;;;;;;8.50;2.22;;;;;;;;;;5046396;28;20024;-66
2022/05/23 01:57:06;;;;;;;6.00;3.10;;;;;;;;;;5046777;28;20378;-66
2022/05/23 02:02:15;;;;;;;6.53;2.70;;;;;;;;;;5046343;28;20043;-66
2022/05/23 02:04:40;;;;;;;4.63;2.85;;;;;;;;;;5042853;28;20025;-66
2022/05/23 02:07:05;;;;;;;6.68;2.70;;;;;;;;;;5042588;28;20071;-66
2022/05/23 02:09:31;;;;;;;5.50;2.70;;;;;;;;;;5046921;28;20057;-66
2022/05/23 02:11:57;;;;;;;5.65;2.45;;;;;;;;;;5059640;28;20378;-66
2022/05/23 02:14:22;;;;;;;13.52;2.85;;;;;;;;;;5049033;28;20104;-66
2022/05/23 02:16:47;;;;;;;10.33;2.40;;;;;;;;;;5039967;28;20013;-66
2022/05/23 02:19:12;;;;;;;4.37;2.10;;;;;;;;;;5046459;28;20337;-66
2022/05/23 02:21:38;;;;;;;6.50;2.80;;;;;;;;;;5052368;28;20293;-66
2022/05/23 02:24:06;;;;;;;4.27;2.13;;;;;;;;;;5049957;28;20017;-66
2022/05/23 02:26:32;;;;;;;5.40;2.22;;;;;;;;;;5044135;28;20025;-66
2022/05/23 02:28:57;;;;;;;9.85;2.53;;;;;;;;;;5049979;28;20080;-66
2022/05/23 02:31:23;;;;;;;7.97;2.78;;;;;;;;;;5045986;28;20032;-66
2022/05/23 02:33:48;;;;;;;12.57;2.55;;;;;;;;;;5043057;28;20025;-66
2022/05/23 02:36:13;;;;;;;11.55;2.97;;;;;;;;;;5044045;28;20013;-66
2022/05/23 02:38:38;;;;;;;4.50;2.40;;;;;;;;;;5038927;28;20018;-66
2022/05/23 02:41:03;;;;;;;7.80;2.40;;;;;;;;;;5036727;28;20350;-66
2022/05/23 02:43:30;;;;;;;4.32;2.30;;;;;;;;;;5049640;28;20041;-66
2022/05/23 02:45:55;;;;;;;6.22;2.50;;;;;;;;;;5046116;28;20040;-66
2022/05/23 02:48:20;;;;;;;11.10;3.42;;;;;;;;;;5037932;28;20454;-66
2022/05/23 02:50:45;;;;;;;7.32;3.25;;;;;;;;;;5047164;28;20026;-66
2022/05/23 02:53:11;;;;;;;7.90;2.43;;;;;;;;;;5054613;28;20021;-66
2022/05/23 02:55:36;;;;;;;5.85;2.53;;;;;;;;;;5043312;28;20333;-66
2022/05/23 02:58:02;;;;;;;6.73;2.60;;;;;;;;;;5047148;28;20065;-66
2022/05/23 03:00:27;;;;;;;3.28;2.10;;;;;;;;;;5055542;28;20277;-66
2022/05/23 03:03:01;;;;;;;1.58;1.13;;;;;;;;;;5046112;28;21278;-66
2022/05/23 03:05:26;;;;;;;9.90;2.40;;;;;;;;;;5049409;28;20025;-66
2022/05/23 03:07:52;;;;;;;7.20;2.67;;;;;;;;;;5045064;28;20031;-66
2022/05/23 03:10:17;;;;;;;8.90;2.33;;;;;;;;;;5048542;28;20477;-66
2022/05/23 03:12:42;;;;;;;8.98;2.50;;;;;;;;;;5054373;28;20271;-66
2022/05/23 03:15:07;;;;;;;6.00;2.40;;;;;;;;;;5049332;28;20017;-66
2022/05/23 03:17:33;;;;;;;3.65;1.60;;;;;;;;;;5048115;28;20290;-66
2022/05/23 03:19:58;;;;;;;4.55;2.00;;;;;;;;;;5046720;28;20016;-66
2022/05/23 03:27:51;;;;;;;13.23;2.45;;;;;;;;;;5048531;28;20027;-66
2022/05/23 03:30:16;;;;;;;8.17;2.30;;;;;;;;;;5048147;28;20022;-66
2022/05/23 03:32:42;;;;;;;24.77;3.67;;;;;;;;;;5059741;28;20286;-66
2022/05/23 03:35:07;;;;;;;11.82;2.15;;;;;;;;;;5045891;28;20274;-66
2022/05/23 03:37:33;;;;;;;8.93;2.22;;;;;;;;;;5042522;28;20029;-66
2022/05/23 03:39:58;;;;;;;5.53;2.00;;;;;;;;;;5047014;28;20493;-66
2022/05/23 03:42:23;;;;;;;5.67;2.60;;;;;;;;;;5045495;28;20037;-66
2022/05/23 03:44:48;;;;;;;8.80;2.80;;;;;;;;;;5056234;28;20279;-66
2022/05/23 03:47:13;;;;;;;5.37;2.17;;;;;;;;;;5049160;28;20021;-66
2022/05/23 03:49:39;;;;;;;6.50;2.40;;;;;;;;;;5041311;28;20367;-66
2022/05/23 03:52:04;;;;;;;6.93;2.40;;;;;;;;;;5050646;28;20021;-66
2022/05/23 03:54:29;;;;;;;6.07;2.45;;;;;;;;;;5052790;28;20115;-66
2022/05/23 03:57:02;;;;;;;10.65;2.55;;;;;;;;;;5043558;28;20473;-66
2022/05/23 03:59:27;;;;;;;4.97;1.80;;;;;;;;;;5039733;28;20028;-66
2022/05/23 04:01:54;;;;;;;6.07;2.58;;;;;;;;;;5050485;28;20394;-66
2022/05/23 04:04:20;;;;;;;5.13;1.80;;;;;;;;;;5056930;28;20024;-66
2022/05/23 04:06:45;;;;;;;5.10;2.28;;;;;;;;;;5050586;28;20114;-66
2022/05/23 04:09:10;;;;;;;9.73;1.88;;;;;;;;;;5050585;28;20094;-66
2022/05/23 04:11:35;;;;;;;4.97;2.30;;;;;;;;;;5051633;28;20063;-66
2022/05/23 04:14:00;;;;;;;4.60;1.80;;;;;;;;;;5061501;28;20278;-66
2022/05/23 04:16:29;;;;;;;10.93;2.17;;;;;;;;;;5048857;28;20728;-66
2022/05/23 04:18:54;;;;;;;4.28;2.10;;;;;;;;;;5044834;28;20267;-65
2022/05/23 04:21:19;;;;;;;3.25;2.20;;;;;;;;;;5048933;28;20028;-66
2022/05/23 04:23:46;;;;;;;5.47;2.37;;;;;;;;;;5054697;28;20025;-66
2022/05/23 04:26:11;;;;;;;5.85;2.13;;;;;;;;;;5046135;28;20307;-66
2022/05/23 04:28:39;;;;;;;8.68;1.75;;;;;;;;;;5047499;28;20150;-66
2022/05/23 04:31:04;;;;;;;11.23;2.33;;;;;;;;;;5046873;28;20040;-66
2022/05/23 04:36:13;;;;;;;10.45;2.10;;;;;;;;;;5049049;28;20159;-66
2022/05/23 04:38:39;;;;;;;3.37;2.00;;;;;;;;;;5048542;28;20107;-66
2022/05/23 04:41:06;;;;;;;5.17;1.60;;;;;;;;;;5048178;28;20290;-66
2022/05/23 04:43:31;;;;;;;5.00;1.42;;;;;;;;;;5053000;28;20278;-66
2022/05/23 04:45:56;;;;;;;7.67;2.13;;;;;;;;;;5050160;28;20282;-66
2022/05/23 04:51:05;;;;;;;2.67;1.48;;;;;;;;;;5042089;28;20354;-66
2022/05/23 04:53:31;;;;;;;6.70;1.63;;;;;;;;;;5056375;28;20060;-66
2022/05/23 04:55:57;;;;;;;6.97;2.25;;;;;;;;;;5043550;28;20293;-66
2022/05/23 04:58:22;;;;;;;3.97;1.58;;;;;;;;;;5047100;28;20012;-66
2022/05/23 05:00:48;;;;;;;4.33;2.03;;;;;;;;;;5050849;28;21158;-66
2022/05/23 05:03:13;;;;;;;2.15;1.38;;;;;;;;;;5047476;28;20303;-66
2022/05/23 05:05:38;;;;;;;9.15;2.05;;;;;;;;;;5047278;28;20025;-66
2022/05/23 05:08:04;;;;;;;2.67;1.60;;;;;;;;;;5044870;28;20044;-66
2022/05/23 05:10:29;;;;;;;2.45;1.40;;;;;;;;;;5047649;28;20031;-66
2022/05/23 05:12:55;;;;;;;7.68;1.95;;;;;;;;;;5052601;28;20474;-66
2022/05/23 05:15:21;;;;;;;2.50;1.73;;;;;;;;;;5042976;28;20131;-66
2022/05/23 05:17:46;;;;;;;5.85;1.80;;;;;;;;;;5048258;28;20020;-66
2022/05/23 05:20:12;;;;;;;6.10;2.00;;;;;;;;;;5049422;28;20048;-66
2022/05/23 05:22:38;;;;;;;8.52;2.10;;;;;;;;;;5047920;28;20280;-66
2022/05/23 05:25:04;;;;;;;10.40;1.95;;;;;;;;;;5037667;28;20469;-66
2022/05/23 05:27:29;;;;;;;4.85;1.85;;;;;;;;;;5040182;28;20024;-65
2022/05/23 05:29:55;;;;;;;3.17;1.67;;;;;;;;;;5037160;28;20097;-66
2022/05/23 05:32:26;;;;;;;4.15;1.70;;;;;;;;;;5041154;28;20156;-66
2022/05/23 05:34:55;;;;;;;6.28;2.33;;;;;;;;;;5048761;28;20451;-66
2022/05/23 05:37:27;;;;;;;8.45;2.08;;;;;;;;;;5034857;28;20046;-66
2022/05/23 05:39:53;;;;;;;7.70;1.90;;;;;;;;;;5045079;28;20467;-66
2022/05/23 05:42:26;;;;;;;4.50;1.48;;;;;;;;;;5043358;28;20031;-66
2022/05/23 05:44:53;;;;;;;6.15;2.72;;;;;;;;;;5058987;28;20020;-66
2022/05/23 05:47:19;;;;;;;7.45;2.80;;;;;;;;;;5042795;28;20108;-66
2022/05/23 05:49:46;;;;;;;4.70;2.03;;;;;;;;;;5047178;28;20067;-66
2022/05/23 05:52:13;;;;;;;4.38;1.83;;;;;;;;;;5041483;28;20017;-65
2022/05/23 05:54:39;;;;;;;6.28;2.22;;;;;;;;;;5053304;28;20563;-65
2022/05/23 05:57:05;;;;;;;3.97;1.92;;;;;;;;;;5049852;28;20032;-66
2022/05/23 05:59:30;;;;;;;5.30;2.10;;;;;;;;;;5041593;28;20032;-66
2022/05/23 06:01:56;;;;;;;5.00;2.10;;;;;;;;;;5052301;28;20031;-66
2022/05/23 06:04:21;;;;;;;5.43;1.50;;;;;;;;;;5038892;28;20418;-66
2022/05/23 06:12:14;;;;;;;5.20;2.13;;;;;;;;;;5043446;28;20075;-66
2022/05/23 06:14:40;;;;;;;5.50;1.83;;;;;;;;;;5047457;28;20024;-66
2022/05/23 06:17:07;;;;;;;2.55;1.85;;;;;;;;;;5048908;28;20275;-66
2022/05/23 06:19:45;;;;;;;12.10;2.53;;;;;;;;;;5049615;28;20496;-66
2022/05/23 06:22:11;;;;;;;1.73;0.80;;;;;;;;;;5042849;28;20039;-66
2022/05/23 06:24:36;;;;;;;4.07;1.60;;;;;;;;;;5052168;28;20714;-66
2022/05/23 06:27:03;;;;;;;5.85;2.10;;;;;;;;;;5046706;28;20021;-66
2022/05/23 06:29:28;;;;;;;3.83;2.10;;;;;;;;;;5039002;28;20462;-66
2022/05/23 06:31:54;;;;;;;4.88;1.58;;;;;;;;;;5046676;28;20067;-65
2022/05/23 06:34:19;;;;;;;6.23;1.83;;;;;;;;;;5055276;28;20486;-66
2022/05/23 06:36:45;;;;;;;6.38;2.05;;;;;;;;;;5046717;28;20368;-65
2022/05/23 06:39:10;;;;;;;7.00;1.95;;;;;;;;;;5049660;28;20020;-65
2022/05/23 06:41:35;;;;;;;9.38;1.77;;;;;;;;;;5040380;28;20028;-65
2022/05/23 06:44:00;;;;;;;5.90;2.00;;;;;;;;;;5047682;28;20032;-65
2022/05/23 06:46:26;;;;;;;4.82;1.77;;;;;;;;;;5049039;28;20431;-65
2022/05/23 06:48:51;;;;;;;5.07;2.30;;;;;;;;;;5054288;28;20024;-67
2022/05/23 06:51:16;;;;;;;4.27;2.50;;;;;;;;;;5059316;28;20271;-68
2022/05/23 06:53:42;;;;;;;6.60;2.00;;;;;;;;;;5049941;28;20274;-67
2022/05/23 06:56:07;;;;;;;8.13;2.03;;;;;;;;;;5048102;28;20299;-67
2022/05/23 06:58:32;;;;;;;4.85;2.30;;;;;;;;;;5039459;28;20029;-67
2022/05/23 07:00:58;;;;;;;8.82;1.77;;;;;;;;;;5051510;28;20504;-67
2022/05/23 07:03:23;;;;;;;4.32;2.53;;;;;;;;;;5051194;28;20473;-67
2022/05/23 07:14:01;;;;;;;6.75;2.75;;;;;;;;;;5051579;28;20055;-67
2022/05/23 07:16:26;;;;;;;3.22;1.98;;;;;;;;;;5059677;28;20461;-67
2022/05/23 07:18:51;;;;;;;2.63;1.50;;;;;;;;;;5058751;28;20017;-67
2022/05/23 07:21:17;;;;;;;4.90;1.77;;;;;;;;;;5056119;28;20021;-67
2022/05/23 07:23:42;;;;;;;7.00;2.53;;;;;;;;;;5048676;28;20648;-67
2022/05/23 07:26:09;;;;;;;10.68;2.33;;;;;;;;;;5060662;28;20461;-67
2022/05/23 07:28:35;;;;;;;1.35;1.10;;;;;;;;;;5058921;28;20036;-67
2022/05/23 07:31:00;;;;;;;4.20;1.98;;;;;;;;;;5049444;28;20016;-66
2022/05/23 07:33:25;;;;;;;2.85;1.27;;;;;;;;;;5055075;28;20021;-67
2022/05/23 07:35:58;;;;;;;3.75;1.70;;;;;;;;;;5050129;28;20020;-67
2022/05/23 07:38:24;;;;;;;9.93;2.67;;;;;;;;;;5050446;28;20025;-67
2022/05/23 07:40:52;;;;;;;2.83;1.67;;;;;;;;;;5057615;28;20036;-66
2022/05/23 07:43:18;;;;;;;3.95;1.27;;;;;;;;;;5058459;28;20028;-66
2022/05/23 07:45:44;;;;;;;6.25;2.08;;;;;;;;;;5059404;28;20035;-67
2022/05/23 07:48:09;;;;;;;6.88;3.20;;;;;;;;;;5056362;28;20039;-67
2022/05/23 07:50:34;;;;;;;8.90;2.38;;;;;;;;;;5061865;28;20031;-67
2022/05/23 08:01:11;;;;;;;5.97;2.05;;;;;;;;;;5055753;28;20492;-67
2022/05/23 08:03:36;;;;;;;5.45;2.65;;;;;;;;;;5063951;28;20028;-67
2022/05/23 08:06:02;;;;;;;6.63;2.10;;;;;;;;;;5055974;28;20103;-67
2022/05/23 08:08:27;;;;;;;6.53;2.13;;;;;;;;;;5054246;28;20348;-67
2022/05/23 08:10:52;;;;;;;7.13;1.70;;;;;;;;;;5052091;28;20442;-67
2022/05/23 08:13:17;;;;;;;8.35;2.10;;;;;;;;;;5048994;28;20742;-67
2022/05/23 08:15:43;;;;;;;10.27;2.25;;;;;;;;;;5053858;28;20025;-67
2022/05/23 08:18:08;;;;;;;5.50;2.42;;;;;;;;;;5052278;28;20017;-66
2022/05/23 08:20:34;;;;;;;3.92;1.48;;;;;;;;;;5050551;28;20025;-66
2022/05/23 08:22:59;;;;;;;5.80;1.63;;;;;;;;;;5050550;28;20078;-67
2022/05/23 08:25:25;;;;;;;5.65;2.67;;;;;;;;;;5061094;28;20020;-67
2022/05/23 08:27:53;;;;;;;4.75;2.00;;;;;;;;;;5047122;28;20496;-66
2022/05/23 08:30:18;;;;;;;2.88;1.27;;;;;;;;;;5057738;28;20021;-66
2022/05/23 08:32:43;;;;;;;3.92;1.45;;;;;;;;;;5055299;28;20327;-66
2022/05/23 08:35:09;;;;;;;3.00;1.77;;;;;;;;;;5058995;28;20027;-66
2022/05/23 08:37:34;;;;;;;4.57;1.73;;;;;;;;;;5049472;28;20021;-66
2022/05/23 08:39:59;;;;;;;6.07;2.00;;;;;;;;;;5051721;28;20028;-66
2022/05/23 08:42:27;;;;;;;5.20;2.03;;;;;;;;;;5056766;28;20565;-66
2022/05/23 08:45:00;;;;;;;3.50;1.48;;;;;;;;;;5052858;28;20025;-66
2022/05/23 08:47:30;;;;;;;6.25;1.90;;;;;;;;;;5045916;28;20053;-67
2022/05/23 08:49:55;;;;;;;;;;;;;;;;;;5052799;28;20091;-67
2022/05/23 08:52:29;;;;;;;2.13;1.48;;;;;;;;;;5048707;28;19913;-67
2022/05/23 08:55:04;;;;;;;3.03;1.60;;;;;;;;;;5058589;28;20032;-67
2022/05/23 08:57:33;;;;;;;3.25;1.33;;;;;;;;;;5030795;28;20043;-66
2022/05/23 09:00:00;;;;;;;2.75;1.90;;;;;;;;;;5042042;28;20060;-67
2022/05/23 09:02:46;;;;;;;2.40;1.42;;;;;;;;;;5050244;28;20020;-67
2022/05/23 09:05:12;;;;;;;3.80;1.80;;;;;;;;;;5045063;28;20112;-67
2022/05/23 09:07:38;;;;;;;1.42;1.17;;;;;;;;;;5034651;28;20033;-67
2022/05/23 09:10:05;;;;;;;1.92;1.05;;;;;;;;;;5029761;28;20029;-66
2022/05/23 09:12:30;;;;;;;4.10;2.28;;;;;;;;;;5030860;28;20057;-67
2022/05/23 09:14:56;;;;;;;8.40;2.17;;;;;;;;;;5031185;28;20052;-67
2022/05/23 09:17:23;;;;;;;1.50;1.13;;;;;;;;;;5035262;28;20020;-67
2022/05/23 09:20:00;;;;;;;6.60;2.17;;;;;;;;;;5043434;28;20048;-67
2022/05/23 09:22:38;;;;;;;5.88;2.00;;;;;;;;;;5064745;28;20021;-67
2022/05/23 09:25:05;;;;;;;3.70;1.58;;;;;;;;;;5043264;28;20099;-67
2022/05/23 09:27:30;;;;;;;7.35;1.42;;;;;;;;;;5030368;28;20022;-67
2022/05/23 09:29:56;;;;;;;11.32;1.95;;;;;;;;;;5056876;28;20020;-67
2022/05/23 09:32:26;;;;;;;1.42;1.08;;;;;;;;;;5050804;28;20063;-67
2022/05/23 09:34:54;;;;;;;3.42;1.73;;;;;;;;;;5058851;28;20031;-67
2022/05/23 09:37:22;;;;;;;5.43;1.60;;;;;;;;;;5046067;28;20097;-66
2022/05/23 09:39:51;;;;;;;3.28;1.17;;;;;;;;;;5056953;28;20016;-67
2022/05/23 09:48:00;;;;;;;8.38;1.85;;;;;;;;;;5033218;28;20513;-67
2022/05/23 09:50:25;;;;;;;7.93;1.70;;;;;;;;;;5062925;28;20013;-67
2022/05/23 09:52:52;;;;;;;3.23;1.70;;;;;;;;;;5049340;28;20024;-67
2022/05/23 09:55:28;;;;;;;9.20;1.35;;;;;;;;;;5060488;28;20032;-67
2022/05/23 09:57:54;;;;;;;6.78;1.83;;;;;;;;;;5067372;28;20008;-67
2022/05/23 10:00:22;;;;;;;3.65;1.33;;;;;;;;;;5048523;28;20021;-67
2022/05/23 10:02:52;;;;;;;5.10;1.52;;;;;;;;;;5051071;28;20029;-67
2022/05/23 10:05:26;;;;;;;3.33;1.37;;;;;;;;;;5052358;28;20021;-67
2022/05/23 10:07:56;;;;;;;8.45;1.42;;;;;;;;;;5057046;28;20290;-68
2022/05/23 10:10:23;;;;;;;7.25;1.98;;;;;;;;;;5052780;28;20066;-67
2022/05/23 10:12:49;;;;;;;5.13;1.83;;;;;;;;;;5047655;28;20037;-67
2022/05/23 10:15:20;;;;;;;6.00;1.35;;;;;;;;;;5061927;28;20571;-68
2022/05/23 10:17:57;;;;;;;1.98;1.02;;;;;;;;;;5049374;28;20036;-67
2022/05/23 10:20:25;;;;;;;6.07;1.30;;;;;;;;;;5044243;28;20488;-68
2022/05/23 10:23:10;;;;;;;2.33;1.40;;;;;;;;;;5138224;23;20044;-70
2022/05/23 10:26:05;;;;;;;3.28;1.40;;;;;;;;;;5056503;28;20037;-72
2022/05/23 10:29:02;;;;;;;4.22;1.77;;;;;;;;;;5024293;28;20502;-70
2022/05/23 10:31:46;;;;;;;1.60;1.13;;;;;;;;;;5038410;28;20037;-71
2022/05/23 10:34:30;;;;;;;1.90;0.88;;;;;;;;;;5062663;28;20013;-69
2022/05/23 10:36:57;;;;;;;3.05;1.48;;;;;;;;;;5045679;28;20029;-69
2022/05/23 10:42:28;;;;;;;7.38;1.50;;;;;;;;;;5036808;28;20040;-71
2022/05/23 10:45:12;;;;;;;3.35;1.25;;;;;;;;;;5029887;28;20061;-70
2022/05/23 10:47:46;;;;;;;3.47;1.23;;;;;;;;;;5029394;28;20060;-71
2022/05/23 10:50:21;;;;;;;2.35;1.58;;;;;;;;;;5058177;28;20010;-69
2022/05/23 10:52:53;;;;;;;5.18;1.90;;;;;;;;;;5055950;28;20025;-70
2022/05/23 10:55:21;;;;;;;4.47;1.60;;;;;;;;;;5042465;28;20029;-71
2022/05/23 10:58:01;;;;;;;7.38;1.60;;;;;;;;;;5057660;28;20029;-72
2022/05/23 11:00:26;;;;;;;;;;;;;;;;;;5030036;28;20022;-71
2022/05/23 11:03:08;;;;;;;3.90;1.63;;;;;;;;;;5055898;28;19909;-72
2022/05/23 11:05:33;;;;;;;4.93;1.90;;;;;;;;;;5029365;28;20167;-73
2022/05/23 11:08:08;;;;;;;6.13;1.67;;;;;;;;;;5058361;28;20116;-71
2022/05/23 11:10:41;;;;;;;10.60;2.00;;;;;;;;;;5062185;28;20446;-73
2022/05/23 11:13:27;;;;;;;8.77;2.30;;;;;;;;;;5055544;28;20016;-71
2022/05/23 11:16:11;;;;;;;2.80;1.83;;;;;;;;;;5066258;28;20032;-71
2022/05/23 11:18:49;;;;;;;6.25;2.20;;;;;;;;;;5050479;28;20029;-72
2022/05/23 11:21:33;;;;;;;8.75;1.70;;;;;;;;;;5055077;28;20024;-71
2022/05/23 11:24:04;;;;;;;4.93;1.45;;;;;;;;;;5050553;28;20024;-72
2022/05/23 11:26:48;;;;;;;8.02;2.03;;;;;;;;;;5066238;28;20025;-71
2022/05/23 11:34:49;;;;;;;5.65;1.85;;;;;;;;;;5063597;28;20104;-75
2022/05/23 11:40:04;;;;;;;6.90;2.33;;;;;;;;;;5060715;28;20021;-72
2022/05/23 11:42:29;;;;;;;3.60;1.80;;;;;;;;;;5056083;28;20021;-72
2022/05/23 11:44:57;;;;;;;7.97;1.40;;;;;;;;;;5058055;28;20100;-69
2022/05/23 11:47:23;;;;;;;7.15;1.50;;;;;;;;;;5059169;28;20286;-71
2022/05/23 11:50:00;;;;;;;4.10;2.10;;;;;;;;;;5066114;28;20048;-73
2022/05/23 11:52:43;;;;;;;1.92;1.33;;;;;;;;;;5059947;28;20468;-67
2022/05/23 11:55:09;;;;;;;3.40;1.52;;;;;;;;;;5059344;28;20027;-71
2022/05/23 11:57:38;;;;;;;2.75;1.75;;;;;;;;;;5065613;28;20055;-71
2022/05/23 12:00:33;;;;;;;3.42;2.25;;;;;;;;;;5066041;28;20017;-71
2022/05/23 12:03:03;;;;;;;7.43;2.38;;;;;;;;;;5043723;28;20071;-70
2022/05/23 12:05:30;;;;;;;5.00;1.48;;;;;;;;;;5052652;28;20032;-70
2022/05/23 12:07:56;;;;;;;3.30;1.90;;;;;;;;;;5043002;28;20445;-74
2022/05/23 12:10:21;;;;;;;7.28;2.28;;;;;;;;;;5041708;28;20108;-70
2022/05/23 12:12:50;;;;;;;9.32;2.10;;;;;;;;;;5052144;28;20096;-70
2022/05/23 12:15:34;;;;;;;5.15;1.50;;;;;;;;;;5046103;28;20063;-72
2022/05/23 12:18:01;;;;;;;1.75;0.90;;;;;;;;;;5051492;28;20481;-72
2022/05/23 12:20:27;;;;;;;4.75;2.20;;;;;;;;;;5052159;28;20032;-71
2022/05/23 12:23:15;;;;;;;3.65;2.13;;;;;;;;;;5058183;28;20020;-72
2022/05/23 12:25:40;;;;;;;7.88;1.70;;;;;;;;;;5050336;28;20033;-70
2022/05/23 12:28:14;;;;;;;9.00;2.35;;;;;;;;;;5051385;28;20031;-69
2022/05/23 12:30:43;;;;;;;2.55;1.10;;;;;;;;;;5050617;28;20025;-73
2022/05/23 12:33:10;;;;;;;11.40;2.30;;;;;;;;;;5049281;28;20037;-72
2022/05/23 12:35:44;;;;;;;5.53;1.95;;;;;;;;;;5041570;28;20024;-70
2022/05/23 12:38:12;;;;;;;13.65;2.20;;;;;;;;;;5049695;28;20021;-69
2022/05/23 12:40:47;;;;;;;5.30;1.75;;;;;;;;;;5054863;28;20029;-70
2022/05/23 12:43:12;;;;;;;3.72;1.60;;;;;;;;;;5052830;28;20042;-72
2022/05/23 12:45:57;;;;;;;7.05;1.45;;;;;;;;;;5046369;28;20043;-69
2022/05/23 12:48:48;;;;;;;8.90;1.73;;;;;;;;;;5038736;28;20041;-71
2022/05/23 12:51:19;;;;;;;2.60;1.50;;;;;;;;;;5052406;28;20398;-70
2022/05/23 12:54:02;;;;;;;4.47;1.95;;;;;;;;;;5048218;28;20029;-71
2022/05/23 12:56:27;;;;;;;5.03;1.55;;;;;;;;;;5047515;28;20023;-71
2022/05/23 12:59:20;;;;;;;2.00;1.37;;;;;;;;;;5049652;28;20029;-70
2022/05/23 13:01:46;;;;;;;2.35;1.20;;;;;;;;;;5059075;28;20262;-70
2022/05/23 13:04:14;;;;;;;3.22;1.73;;;;;;;;;;5051410;28;20481;-72
2022/05/23 13:06:53;;;;;;;3.92;2.25;;;;;;;;;;5055992;28;20052;-69
2022/05/23 13:09:33;;;;;;;2.95;1.58;;;;;;;;;;5035275;28;20509;-70
2022/05/23 13:12:05;;;;;;;6.18;2.25;;;;;;;;;;5050913;28;20472;-70
2022/05/23 13:15:05;;;;;;;3.97;2.30;;;;;;;;;;5049531;28;20025;-69
2022/05/23 13:22:05;;;;;;;10.82;2.53;;;;;;;;;;5026945;28;20140;-70
2022/05/23 13:23:29;;;;;;;3.92;1.05;;;;;;;;;;5053442;28;20397;-70
2022/05/23 13:25:54;;;;;;;6.78;1.38;;;;;;;;;;5062180;28;20016;-72
2022/05/23 13:28:19;;;;;;;2.67;1.65;;;;;;;;;;5054697;28;20037;-70
2022/05/23 13:30:49;;;;;;;9.15;2.20;;;;;;;;;;5064282;28;20479;-72
2022/05/23 13:33:16;;;;;;;5.68;2.38;;;;;;;;;;5059260;28;20099;-71
2022/05/23 13:35:42;;;;;;;5.45;2.05;;;;;;;;;;5053685;28;20108;-72
2022/05/23 13:38:28;;;;;;;4.72;2.45;;;;;;;;;;5056033;28;20020;-71
2022/05/23 13:40:54;;;;;;;6.82;2.95;;;;;;;;;;5057425;28;20017;-71
2022/05/23 13:43:25;;;;;;;7.07;3.05;;;;;;;;;;5052926;28;20025;-71
2022/05/23 13:45:59;;;;;;;9.43;3.67;;;;;;;;;;5055685;28;20515;-70
2022/05/23 13:48:32;;;;;;;9.65;3.42;;;;;;;;;;5041337;28;20485;-70
2022/05/23 13:50:59;;;;;;;12.02;4.30;;;;;;;;;;5055364;28;20013;-70
2022/05/23 13:53:28;;;;;;;8.40;4.10;;;;;;;;;;5056501;28;20019;-70
2022/05/23 13:55:54;;;;;;;9.70;4.00;;;;;;;;;;5052493;28;20435;-70
2022/05/23 13:58:28;;;;;;;8.82;4.38;;;;;;;;;;5046078;28;20025;-70
2022/05/23 14:00:59;;;;;;;10.70;4.40;;;;;;;;;;5054224;28;20029;-69
2022/05/23 14:03:25;;;;;;;11.73;4.35;;;;;;;;;;5051793;28;20692;-69
2022/05/23 14:05:52;;;;;;;10.82;4.32;;;;;;;;;;5056165;28;20025;-69
2022/05/23 14:08:21;;;;;;;14.10;4.82;;;;;;;;;;5055740;28;20039;-70
2022/05/23 14:10:47;;;;;;;9.75;4.90;;;;;;;;;;5057250;28;20028;-69
2022/05/23 14:13:14;;;;;;;9.70;4.68;;;;;;;;;;5048996;28;20111;-69
2022/05/23 14:15:45;;;;;;;12.20;4.45;;;;;;;;;;5060454;28;20032;-69
2022/05/23 14:18:12;;;;;;;12.25;4.38;;;;;;;;;;5059138;28;20029;-69
2022/05/23 14:20:41;;;;;;;9.38;4.30;;;;;;;;;;5047610;28;20673;-69
2022/05/23 14:23:09;;;;;;;12.25;4.00;;;;;;;;;;5049918;28;20028;-69
2022/05/23 14:25:38;;;;;;;12.57;3.83;;;;;;;;;;5056692;28;20024;-69
2022/05/23 14:28:06;;;;;;;12.13;4.82;;;;;;;;;;5049978;28;20422;-69
2022/05/23 14:30:35;;;;;;;14.98;4.07;;;;;;;;;;5062234;28;20028;-69
2022/05/23 14:33:17;;;;;;;10.90;3.70;;;;;;;;;;5048923;28;20095;-69
2022/05/23 14:35:50;;;;;;;8.65;3.70;;;;;;;;;;5056758;28;20025;-69
2022/05/23 14:38:24;;;;;;;10.63;4.28;;;;;;;;;;5055433;28;20032;-69
2022/05/23 14:40:49;;;;;;;10.63;4.53;;;;;;;;;;5055135;28;20129;-69
2022/05/23 14:43:19;;;;;;;16.40;5.50;;;;;;;;;;5055939;28;20667;-69
2022/05/23 14:45:48;;;;;;;9.80;4.38;;;;;;;;;;5054134;28;20497;-68
2022/05/23 14:48:15;;;;;;;7.93;4.05;;;;;;;;;;5052386;28;20083;-69
2022/05/23 14:50:55;;;;;;;8.98;4.07;;;;;;;;;;5051422;28;20021;-69
2022/05/23 14:56:09;;;;;;;10.20;4.47;;;;;;;;;;5062999;28;20072;-69
2022/05/23 15:01:21;;;;;;;9.90;4.30;;;;;;;;;;5065668;28;20023;-68
2022/05/23 15:03:48;;;;;;;13.57;5.22;;;;;;;;;;5059875;28;20042;-69
2022/05/23 15:06:15;;;;;;;9.15;5.47;;;;;;;;;;5059230;28;20125;-68
2022/05/23 15:08:40;;;;;;;16.23;5.90;;;;;;;;;;5050247;28;20125;-69
2022/05/23 15:11:08;;;;;;;11.73;4.93;;;;;;;;;;5067351;28;20088;-69
2022/05/23 15:13:34;;;;;;;16.15;6.00;;;;;;;;;;5063602;28;20494;-69
2022/05/23 15:16:04;;;;;;;19.15;7.18;;;;;;;;;;5054350;28;20474;-69
2022/05/23 15:18:31;;;;;;;24.98;7.18;;;;;;;;;;5048338;28;20090;-69
2022/05/23 15:20:57;;;;;;;18.50;7.05;;;;;;;;;;5051214;28;20552;-69
2022/05/23 15:23:23;;;;;;;19.05;6.15;;;;;;;;;;5046567;28;20028;-69
2022/05/23 15:25:48;;;;;;;13.98;5.13;;;;;;;;;;5055514;28;20393;-69
2022/05/23 15:28:13;;;;;;;14.13;5.53;;;;;;;;;;5049344;28;20485;-70
2022/05/23 15:30:38;;;;;;;13.48;5.63;;;;;;;;;;5049043;28;20449;-69
2022/05/23 15:33:03;;;;;;;16.50;5.77;;;;;;;;;;5054158;28;20025;-70
2022/05/23 15:35:29;;;;;;;19.08;6.15;;;;;;;;;;5041808;28;20268;-70
2022/05/23 15:37:54;;;;;;;18.38;7.10;;;;;;;;;;5064741;28;20442;-70
2022/05/23 15:40:19;;;;;;;15.83;6.70;;;;;;;;;;5067293;28;20060;-69
2022/05/23 15:42:47;;;;;;;20.25;7.00;;;;;;;;;;5048632;28;20756;-69
2022/05/23 15:45:24;;;;;;;16.13;6.18;;;;;;;;;;5045842;28;20028;-70
2022/05/23 15:47:49;;;;;;;12.70;6.43;;;;;;;;;;5047069;28;20082;-69
2022/05/23 15:50:17;;;;;;;14.30;6.38;;;;;;;;;;5063799;28;20021;-69
2022/05/23 15:52:42;;;;;;;17.30;6.82;;;;;;;;;;5062169;28;20075;-70
2022/05/23 15:55:08;;;;;;;18.20;6.03;;;;;;;;;;5052182;28;20021;-69